createdAt,value
2019-05-30T00:01:12.343Z,13.20
2019-05-30T00:03:38.396Z,13.30
2019-05-30T00:06:04.651Z,13.20
2019-05-30T00:08:30.840Z,13.20
2019-05-30T00:10:56.912Z,13.20
2019-05-30T00:13:22.973Z,13.20
2019-05-30T00:15:49.033Z,13.20
2019-05-30T00:18:15.102Z,13.10
2019-05-30T00:20:41.263Z,13.10
2019-05-30T00:23:07.330Z,13.10
2019-05-30T00:25:33.408Z,13.10
2019-05-30T00:27:59.463Z,13.20
2019-05-30T00:30:25.524Z,13.20
2019-05-30T00:32:51.601Z,13.20
2019-05-30T00:35:17.646Z,13.20
2019-05-30T00:37:43.721Z,13.10
2019-05-30T00:40:10.097Z,13.20
2019-05-30T00:42:36.176Z,13.10
2019-05-30T00:45:18.002Z,13.00
2019-05-30T00:47:31.811Z,12.90
2019-05-30T00:49:58.169Z,12.90
2019-05-30T00:52:24.358Z,12.80
2019-05-30T00:54:50.419Z,12.80
2019-05-30T00:57:16.476Z,12.60
2019-05-30T00:59:42.605Z,12.50
2019-05-30T01:02:08.799Z,12.50
2019-05-30T01:04:34.856Z,12.50
2019-05-30T01:07:01.009Z,12.50
2019-05-30T01:09:27.080Z,12.60
2019-05-30T01:11:53.135Z,12.70
2019-05-30T01:14:19.200Z,12.70
2019-05-30T01:16:45.260Z,12.70
2019-05-30T01:19:11.369Z,12.70
2019-05-30T01:21:37.595Z,12.70
2019-05-30T01:24:03.869Z,12.70
2019-05-30T01:26:29.925Z,12.80
2019-05-30T01:28:57.277Z,12.80
2019-05-30T01:31:23.456Z,12.70
2019-05-30T01:33:49.503Z,12.70
2019-05-30T01:36:15.560Z,12.70
2019-05-30T01:38:41.624Z,12.60
2019-05-30T01:41:08.078Z,12.60
2019-05-30T01:43:34.340Z,12.50
2019-05-30T01:46:00.400Z,12.50
2019-05-30T01:48:26.568Z,12.40
2019-05-30T01:50:52.624Z,12.30
2019-05-30T01:53:18.724Z,12.30
2019-05-30T01:55:44.851Z,12.30
2019-05-30T01:58:11.030Z,12.20
2019-05-30T02:00:38.697Z,12.10
2019-05-30T02:03:06.953Z,12.10
2019-05-30T02:05:33.333Z,12.00
2019-05-30T02:07:59.379Z,11.90
2019-05-30T02:10:25.455Z,11.90
2019-05-30T02:12:51.533Z,11.90
2019-05-30T02:15:17.679Z,11.90
2019-05-30T02:17:43.764Z,11.80
2019-05-30T02:20:10.360Z,11.80
2019-05-30T02:22:36.437Z,11.70
2019-05-30T02:25:06.088Z,11.70
2019-05-30T02:27:32.268Z,11.60
2019-05-30T02:29:58.347Z,11.50
2019-05-30T02:32:24.413Z,11.50
2019-05-30T02:34:50.480Z,11.50
2019-05-30T02:37:16.548Z,11.40
2019-05-30T02:39:42.617Z,11.30
2019-05-30T02:42:09.606Z,11.30
2019-05-30T02:44:36.354Z,11.30
2019-05-30T02:47:03.596Z,11.30
2019-05-30T02:49:30.600Z,11.30
2019-05-30T02:51:56.709Z,11.30
2019-05-30T02:54:22.928Z,11.30
2019-05-30T02:56:49.000Z,11.30
2019-05-30T02:59:15.170Z,11.20
2019-05-30T03:01:58.990Z,11.20
2019-05-30T03:04:10.992Z,11.10
2019-05-30T03:06:37.578Z,11.10
2019-05-30T03:09:06.782Z,11.10
2019-05-30T03:11:34.117Z,11.10
2019-05-30T03:14:02.140Z,11.00
2019-05-30T03:16:28.564Z,11.00
2019-05-30T03:18:54.941Z,11.00
2019-05-30T03:21:20.994Z,10.90
2019-05-30T03:23:47.074Z,10.90
2019-05-30T03:26:15.718Z,10.80
2019-05-30T03:28:41.193Z,10.80
2019-05-30T03:31:13.870Z,10.80
2019-05-30T03:33:41.571Z,10.80
2019-05-30T03:36:09.022Z,10.70
2019-05-30T03:38:32.284Z,10.70
2019-05-30T03:40:58.452Z,10.70
2019-05-30T03:43:24.520Z,10.70
2019-05-30T03:45:50.594Z,10.60
2019-05-30T03:48:19.739Z,10.60
2019-05-30T03:50:49.622Z,10.60
2019-05-30T03:53:16.282Z,10.50
2019-05-30T03:55:46.353Z,10.50
2019-05-30T03:58:31.396Z,10.50
2019-05-30T04:01:01.273Z,10.40
2019-05-30T04:03:43.434Z,10.30
2019-05-30T04:06:28.549Z,10.30
2019-05-30T04:08:58.431Z,10.20
2019-05-30T04:11:28.296Z,10.20
2019-05-30T04:14:00.857Z,10.20
2019-05-30T04:16:26.935Z,10.20
2019-05-30T04:18:52.997Z,10.20
2019-05-30T04:21:21.525Z,10.20
2019-05-30T04:23:47.054Z,10.10
2019-05-30T04:26:13.713Z,10.10
2019-05-30T04:28:40.067Z,10.10
2019-05-30T04:31:07.994Z,10.20
2019-05-30T04:33:34.206Z,10.20
2019-05-30T04:36:00.280Z,10.20
2019-05-30T04:38:26.336Z,10.20
2019-05-30T04:40:52.395Z,10.10
2019-05-30T04:43:20.024Z,10.10
2019-05-30T04:45:46.530Z,10.10
2019-05-30T04:48:13.965Z,10.20
2019-05-30T04:50:40.273Z,10.20
2019-05-30T04:53:06.331Z,10.20
2019-05-30T04:55:32.404Z,10.30
2019-05-30T04:57:58.465Z,10.30
2019-05-30T05:00:24.616Z,10.20
2019-05-30T05:02:50.697Z,10.30
2019-05-30T05:05:22.633Z,10.30
2019-05-30T05:07:44.817Z,10.40
2019-05-30T05:10:12.068Z,10.50
2019-05-30T05:12:38.263Z,10.60
2019-05-30T05:15:04.832Z,10.60
2019-05-30T05:17:30.890Z,10.60
2019-05-30T05:19:57.380Z,10.80
2019-05-30T05:22:23.453Z,10.90
2019-05-30T05:24:49.591Z,11.00
2019-05-30T05:27:15.671Z,11.10
2019-05-30T05:29:41.729Z,11.20
2019-05-30T05:32:07.787Z,11.30
2019-05-30T05:34:33.860Z,11.40
2019-05-30T05:37:00.020Z,11.50
2019-05-30T05:39:26.102Z,11.60
2019-05-30T05:41:52.163Z,11.70
2019-05-30T05:44:18.348Z,11.80
2019-05-30T05:46:44.502Z,11.80
2019-05-30T05:49:10.568Z,11.90
2019-05-30T05:51:36.627Z,11.90
2019-05-30T05:54:02.710Z,12.10
2019-05-30T05:56:29.165Z,12.10
2019-05-30T05:58:55.328Z,12.20
2019-05-30T06:01:21.554Z,12.30
2019-05-30T06:03:47.759Z,12.40
2019-05-30T06:06:13.810Z,12.50
2019-05-30T06:08:39.885Z,12.60
2019-05-30T06:11:05.936Z,12.60
2019-05-30T06:13:32.017Z,12.70
2019-05-30T06:15:58.090Z,12.70
2019-05-30T06:18:24.240Z,12.70
2019-05-30T06:20:50.536Z,12.80
2019-05-30T06:23:17.335Z,12.90
2019-05-30T06:25:43.571Z,13.10
2019-05-30T06:28:09.644Z,13.00
2019-05-30T06:30:35.787Z,13.10
2019-05-30T06:33:01.869Z,13.20
2019-05-30T06:35:29.393Z,13.30
2019-05-30T06:37:55.783Z,13.40
2019-05-30T06:40:21.844Z,13.50
2019-05-30T06:42:47.912Z,13.40
2019-05-30T06:45:14.199Z,13.50
2019-05-30T06:47:40.365Z,13.50
2019-05-30T06:50:07.015Z,13.50
2019-05-30T06:52:33.093Z,13.60
2019-05-30T06:54:59.153Z,13.60
2019-05-30T06:57:25.307Z,13.70
2019-05-30T06:59:51.468Z,13.70
2019-05-30T07:02:17.550Z,13.80
2019-05-30T07:04:51.403Z,13.90
2019-05-30T07:07:11.967Z,13.90
2019-05-30T07:09:38.351Z,13.90
2019-05-30T07:12:04.524Z,13.90
2019-05-30T07:14:31.471Z,13.90
2019-05-30T07:16:57.742Z,13.90
2019-05-30T07:19:23.820Z,13.80
2019-05-30T07:21:49.881Z,13.90
2019-05-30T07:24:16.043Z,14.00
2019-05-30T07:26:42.104Z,14.10
2019-05-30T07:29:08.156Z,14.20
2019-05-30T07:31:34.448Z,14.20
2019-05-30T07:34:00.615Z,14.30
2019-05-30T07:36:26.668Z,14.40
2019-05-30T07:38:52.729Z,14.50
2019-05-30T07:41:18.790Z,14.50
2019-05-30T07:43:44.839Z,14.50
2019-05-30T07:46:11.016Z,14.60
2019-05-30T07:48:37.081Z,14.60
2019-05-30T07:51:03.244Z,14.70
2019-05-30T07:53:29.321Z,14.70
2019-05-30T07:55:55.363Z,14.80
2019-05-30T07:58:21.530Z,14.80
2019-05-30T08:00:47.587Z,14.90
2019-05-30T08:03:13.647Z,15.00
2019-05-30T08:05:39.724Z,15.10
2019-05-30T08:08:05.778Z,15.20
2019-05-30T08:10:32.040Z,15.20
2019-05-30T08:12:58.321Z,15.30
2019-05-30T08:15:24.476Z,15.20
2019-05-30T08:17:51.244Z,15.20
2019-05-30T08:20:17.498Z,15.30
2019-05-30T08:22:43.572Z,15.30
2019-05-30T08:25:10.340Z,15.50
2019-05-30T08:27:36.566Z,15.60
2019-05-30T08:30:08.577Z,15.60
2019-05-30T08:32:34.662Z,15.70
2019-05-30T08:35:00.899Z,15.70
2019-05-30T08:37:26.960Z,15.80
2019-05-30T08:39:53.028Z,15.80
2019-05-30T08:42:19.084Z,15.90
2019-05-30T08:44:45.192Z,15.90
2019-05-30T08:47:11.255Z,16.00
2019-05-30T08:49:38.260Z,16.00
2019-05-30T08:52:04.569Z,16.10
2019-05-30T08:54:30.627Z,16.30
2019-05-30T08:56:56.693Z,16.30
2019-05-30T08:59:22.768Z,16.40
2019-05-30T09:01:52.941Z,16.50
2019-05-30T09:04:16.789Z,16.60
2019-05-30T09:06:44.078Z,16.70
2019-05-30T09:09:10.334Z,16.70
2019-05-30T09:11:37.702Z,16.80
2019-05-30T09:14:04.463Z,16.90
2019-05-30T09:16:30.633Z,17.00
2019-05-30T09:18:56.700Z,17.10
2019-05-30T09:21:22.783Z,17.10
2019-05-30T09:23:48.853Z,17.10
2019-05-30T09:26:14.927Z,17.10
2019-05-30T09:28:42.124Z,17.20
2019-05-30T09:31:08.356Z,17.40
2019-05-30T09:33:34.424Z,17.60
2019-05-30T09:36:12.593Z,17.60
2019-05-30T09:38:28.460Z,17.50
2019-05-30T09:40:54.521Z,17.30
2019-05-30T09:43:20.604Z,17.20
2019-05-30T09:45:46.652Z,17.20
2019-05-30T09:48:12.708Z,17.30
2019-05-30T09:50:38.794Z,17.40
2019-05-30T09:53:04.940Z,17.60
2019-05-30T09:55:31.193Z,17.80
2019-05-30T09:57:57.303Z,17.90
2019-05-30T10:00:23.468Z,17.90
2019-05-30T10:02:50.533Z,17.80
2019-05-30T10:05:17.612Z,17.70
2019-05-30T10:07:45.553Z,17.60
2019-05-30T10:10:13.995Z,17.60
2019-05-30T10:12:40.088Z,17.60
2019-05-30T10:15:08.452Z,17.60
2019-05-30T10:17:34.511Z,17.70
2019-05-30T10:20:00.581Z,17.80
2019-05-30T10:22:26.643Z,17.90
2019-05-30T10:24:53.361Z,18.00
2019-05-30T10:27:19.591Z,18.00
2019-05-30T10:29:46.331Z,18.10
2019-05-30T10:32:13.617Z,18.10
2019-05-30T10:34:39.708Z,18.10
2019-05-30T10:37:05.884Z,18.10
2019-05-30T10:39:31.980Z,18.10
2019-05-30T10:41:58.026Z,18.10
2019-05-30T10:44:24.092Z,18.10
2019-05-30T10:46:50.971Z,18.10
2019-05-30T10:49:31.510Z,18.00
2019-05-30T10:51:46.747Z,18.10
2019-05-30T10:54:13.532Z,18.10
2019-05-30T10:56:39.596Z,18.00
2019-05-30T10:59:05.641Z,17.90
2019-05-30T11:01:31.703Z,17.70
2019-05-30T11:03:57.756Z,17.60
2019-05-30T11:06:27.627Z,17.70
2019-05-30T11:08:54.843Z,17.80
2019-05-30T11:11:21.015Z,18.00
2019-05-30T11:13:47.060Z,18.00
2019-05-30T11:16:13.128Z,18.20
2019-05-30T11:18:39.346Z,18.20
2019-05-30T11:21:05.460Z,18.10
2019-05-30T11:23:31.535Z,18.10
2019-05-30T11:25:58.820Z,18.10
2019-05-30T11:28:25.144Z,18.20
2019-05-30T11:30:51.202Z,18.30
2019-05-30T11:33:17.365Z,18.40
2019-05-30T11:35:43.420Z,18.40
2019-05-30T11:38:09.526Z,18.50
2019-05-30T11:40:35.670Z,18.50
2019-05-30T11:43:01.824Z,18.50
2019-05-30T11:45:28.187Z,18.60
2019-05-30T11:47:55.661Z,18.70
2019-05-30T11:50:22.108Z,18.70
2019-05-30T11:52:49.733Z,18.80
2019-05-30T11:55:16.140Z,19.00
2019-05-30T11:57:42.192Z,19.20
2019-05-30T12:00:09.164Z,19.10
2019-05-30T12:02:35.284Z,19.00
2019-05-30T12:05:01.429Z,19.00
2019-05-30T12:07:36.463Z,18.90
2019-05-30T12:09:55.465Z,19.00
2019-05-30T12:12:21.644Z,19.00
2019-05-30T12:14:47.730Z,19.00
2019-05-30T12:17:13.879Z,19.00
2019-05-30T12:19:39.959Z,19.00
2019-05-30T12:22:06.104Z,19.00
2019-05-30T12:24:32.192Z,19.00
2019-05-30T12:26:58.352Z,19.00
2019-05-30T12:29:24.410Z,19.10
2019-05-30T12:31:50.462Z,19.30
2019-05-30T12:34:16.619Z,19.30
2019-05-30T12:36:42.677Z,19.30
2019-05-30T12:39:08.728Z,19.30
2019-05-30T12:41:34.795Z,19.40
2019-05-30T12:44:01.344Z,19.40
2019-05-30T12:46:27.629Z,19.30
2019-05-30T12:48:53.681Z,19.40
2019-05-30T12:51:19.783Z,19.30
2019-05-30T12:53:45.827Z,19.30
2019-05-30T12:56:11.900Z,19.40
2019-05-30T12:58:38.053Z,19.40
2019-05-30T13:01:04.103Z,19.50
2019-05-30T13:03:30.172Z,19.60
2019-05-30T13:05:57.072Z,19.60
2019-05-30T13:08:23.263Z,19.40
2019-05-30T13:10:49.325Z,19.40
2019-05-30T13:13:15.474Z,19.40
2019-05-30T13:15:41.531Z,19.40
2019-05-30T13:18:07.599Z,19.50
2019-05-30T13:20:33.859Z,19.50
2019-05-30T13:23:00.569Z,19.50
2019-05-30T13:25:26.714Z,19.60
2019-05-30T13:27:52.772Z,19.70
2019-05-30T13:30:19.124Z,19.70
2019-05-30T13:32:45.217Z,19.70
2019-05-30T13:35:12.146Z,19.80
2019-05-30T13:37:38.226Z,19.80
2019-05-30T13:40:19.294Z,20.00
2019-05-30T13:42:33.620Z,20.10
2019-05-30T13:44:59.956Z,20.10
2019-05-30T13:47:26.180Z,20.20
2019-05-30T13:49:52.248Z,20.40
2019-05-30T13:52:18.296Z,20.50
2019-05-30T13:54:44.351Z,20.60
2019-05-30T13:57:10.415Z,20.80
2019-05-30T13:59:36.466Z,21.10
2019-05-30T14:02:03.884Z,21.60
2019-05-30T14:33:51.267Z,26.00
2019-05-30T14:36:17.352Z,26.20
2019-05-30T14:38:57.232Z,26.20
2019-05-30T14:41:11.939Z,26.20
2019-05-30T14:43:39.372Z,26.00
2019-05-30T14:46:06.272Z,26.20
2019-05-30T14:48:32.496Z,26.20
2019-05-30T14:50:58.561Z,26.20
2019-05-30T14:53:24.628Z,26.40
2019-05-30T14:55:50.684Z,26.60
2019-05-30T14:58:17.781Z,26.90
2019-05-30T15:00:44.108Z,27.10
2019-05-30T15:03:13.922Z,27.10
2019-05-30T15:05:38.176Z,27.20
2019-05-30T15:08:04.642Z,27.30
2019-05-30T15:10:30.796Z,27.30
2019-05-30T15:12:56.850Z,27.10
2019-05-30T15:15:22.924Z,26.60
2019-05-30T15:17:49.025Z,26.10
2019-05-30T15:20:15.951Z,26.10
2019-05-30T15:22:42.035Z,26.40
2019-05-30T15:25:08.204Z,26.70
2019-05-30T15:27:34.382Z,27.10
2019-05-30T15:30:00.574Z,27.30
2019-05-30T19:14:58.484Z,21.10
2019-05-30T19:54:08.021Z,18.10
2019-05-30T19:56:37.434Z,18.00
2019-05-30T19:59:02.260Z,17.80
2019-05-30T20:01:29.656Z,17.70
2019-05-30T20:13:45.994Z,17.00
2019-05-30T20:16:12.053Z,17.00
2019-05-30T20:18:38.124Z,16.80
2019-05-30T20:21:04.189Z,16.70
2019-05-30T20:23:30.360Z,16.60
2019-05-30T20:25:56.537Z,16.40
2019-05-30T20:28:22.592Z,16.30
2019-05-30T20:30:48.648Z,16.20
2019-05-30T20:33:14.730Z,16.00
2019-05-30T20:35:42.141Z,15.90
2019-05-30T20:38:08.742Z,15.80
2019-05-30T20:40:34.941Z,15.60
2019-05-30T20:43:01.192Z,15.60
2019-05-30T20:45:27.248Z,15.40
2019-05-30T20:47:53.312Z,15.30
2019-05-30T20:50:19.803Z,15.20
2019-05-30T20:52:45.920Z,15.10
2019-05-30T20:55:12.632Z,15.00
2019-05-30T20:57:38.697Z,14.90
2019-05-30T21:00:07.668Z,14.80
2019-05-30T21:02:34.645Z,14.70
2019-05-30T21:05:00.798Z,14.60
2019-05-30T21:07:27.148Z,14.50
2019-05-30T21:09:53.494Z,14.40
2019-05-30T21:12:36.358Z,14.30
2019-05-30T21:14:51.297Z,14.30
2019-05-30T21:17:18.653Z,14.20
2019-05-30T21:19:45.838Z,14.10
2019-05-30T21:22:12.283Z,14.00
2019-05-30T21:24:38.589Z,13.90
2019-05-30T21:27:04.824Z,13.80
2019-05-30T21:29:30.876Z,13.80
2019-05-30T21:31:56.940Z,13.70
2019-05-30T21:34:23.012Z,13.70
2019-05-30T21:36:49.060Z,13.60
2019-05-30T21:39:15.124Z,13.50
2019-05-30T21:41:42.241Z,13.50
2019-05-30T21:44:08.464Z,13.40
2019-05-30T21:46:34.517Z,13.30
2019-05-30T21:49:00.583Z,13.30
2019-05-30T21:51:26.652Z,13.30
2019-05-30T21:53:52.795Z,13.20
2019-05-30T21:56:18.852Z,13.20
2019-05-30T21:58:46.264Z,13.10
2019-05-30T22:01:19.295Z,13.10
2019-05-30T22:03:46.505Z,13.00
2019-05-30T22:06:12.819Z,13.00
2019-05-30T22:08:38.972Z,12.90
2019-05-30T22:11:05.149Z,12.90
2019-05-30T22:13:31.307Z,12.80
2019-05-30T22:15:57.385Z,12.80
2019-05-30T22:18:23.452Z,12.80
2019-05-30T22:20:49.953Z,12.80
2019-05-30T22:23:16.090Z,12.70
2019-05-30T22:25:42.182Z,12.70
2019-05-30T22:28:08.302Z,12.70
2019-05-30T22:30:34.377Z,12.60
2019-05-30T22:33:00.432Z,12.60
2019-05-30T22:35:26.488Z,12.50
2019-05-30T22:37:53.087Z,12.50
2019-05-30T22:40:19.315Z,12.40
2019-05-30T22:42:46.274Z,12.40
2019-05-30T22:45:12.555Z,12.30
2019-05-30T22:47:38.613Z,12.30
2019-05-30T22:50:05.204Z,12.20
2019-05-30T22:52:31.255Z,12.20
2019-05-30T22:54:57.408Z,12.20
2019-05-30T22:57:23.504Z,12.10
2019-05-30T22:59:49.559Z,12.10
2019-05-30T23:02:15.624Z,12.10
2019-05-30T23:04:41.700Z,12.10
2019-05-30T23:07:07.759Z,12.00
2019-05-30T23:09:33.832Z,12.00
2019-05-30T23:11:59.923Z,12.00
2019-05-30T23:14:26.086Z,12.00
2019-05-30T23:16:52.345Z,12.00
2019-05-30T23:19:18.425Z,12.00
2019-05-30T23:21:44.492Z,12.00
2019-05-30T23:24:10.563Z,12.00
2019-05-30T23:26:36.740Z,12.00
2019-05-30T23:29:02.912Z,12.00
2019-05-30T23:31:28.991Z,12.00
2019-05-30T23:33:56.375Z,12.00
2019-05-30T23:36:22.751Z,11.90
2019-05-30T23:38:48.917Z,11.90
2019-05-30T23:41:15.001Z,11.90
2019-05-30T23:43:55.454Z,11.90
2019-05-30T23:46:09.011Z,11.90
2019-05-30T23:48:35.088Z,11.90
2019-05-30T23:51:01.157Z,11.90
2019-05-30T23:53:27.215Z,11.90
2019-05-30T23:55:54.276Z,11.90
2019-05-30T23:58:20.564Z,11.90
